sensor_id;sensor_type;location;lat;lon;timestamp;pressure;altitude;pressure_sealevel;temperature;humidity
7170;BME280;3626;42.656;23.312;2023-05-08T00:00:05;94708.72;;;11.46;100.00
7170;BME280;3626;42.656;23.312;2023-05-08T00:00:12;94711.31;;;11.46;100.00
7170;BME280;3626;42.656;23.312;2023-05-08T00:00:21;94709.53;;;11.46;100.00
7170;BME280;3626;42.656;23.312;2023-05-08T00:00:27;94714.69;;;11.46;100.00
7170;BME280;3626;42.656;23.312;2023-05-08T00:00:33;94711.31;;;11.46;100.00
7170;BME280;3626;42.656;23.312;2023-05-08T00:00:39;94710.50;;;11.45;100.00
7170;BME280;3626;42.656;23.312;2023-05-08T00:00:45;94705.34;;;11.45;100.00
7170;BME280;3626;42.656;23.312;2023-05-08T00:00:55;94716.47;;;11.46;100.00
7170;BME280;3626;42.656;23.312;2023-05-08T00:01:02;94710.50;;;11.45;100.00
7170;BME280;3626;42.656;23.312;2023-05-08T00:01:07;94709.69;;;11.45;100.00
7170;BME280;3626;42.656;23.312;2023-05-08T00:01:13;94708.91;;;11.44;100.00
7170;BME280;3626;42.656;23.312;2023-05-08T00:01:20;94713.09;;;11.45;100.00
7170;BME280;3626;42.656;23.312;2023-05-08T00:01:28;94713.28;;;11.44;100.00
7170;BME280;3626;42.656;23.312;2023-05-08T00:01:34;94714.25;;;11.43;100.00
7170;BME280;3626;42.656;23.312;2023-05-08T00:01:40;94710.69;;;11.44;100.00
7170;BME280;3626;42.656;23.312;2023-05-08T00:01:46;94715.06;;;11.43;100.00
7170;BME280;3626;42.656;23.312;2023-05-08T00:01:55;94706.66;;;11.41;100.00
7170;BME280;3626;42.656;23.312;2023-05-08T00:02:01;94716.00;;;11.42;100.00
7170;BME280;3626;42.656;23.312;2023-05-08T00:02:07;94713.41;;;11.42;100.00
7170;BME280;3626;42.656;23.312;2023-05-08T00:02:13;94717.63;;;11.43;100.00
7170;BME280;3626;42.656;23.312;2023-05-08T00:02:18;94712.63;;;11.42;100.00
7170;BME280;3626;42.656;23.312;2023-05-08T00:02:24;94707.44;;;11.42;100.00
7170;BME280;3626;42.656;23.312;2023-05-08T00:02:30;94711.81;;;11.41;100.00
7170;BME280;3626;42.656;23.312;2023-05-08T00:02:36;94708.25;;;11.42;100.00
7170;BME280;3626;42.656;23.312;2023-05-08T00:02:42;94716.97;;;11.41;100.00
7170;BME280;3626;42.656;23.312;2023-05-08T00:02:48;94716.00;;;11.42;100.00
7170;BME280;3626;42.656;23.312;2023-05-08T00:02:54;94715.38;;;11.40;100.00
7170;BME280;3626;42.656;23.312;2023-05-08T00:03:00;94713.78;;;11.39;100.00
7170;BME280;3626;42.656;23.312;2023-05-08T00:03:06;94708.63;;;11.39;100.00
7170;BME280;3626;42.656;23.312;2023-05-08T00:03:13;94712.00;;;11.40;100.00
7170;BME280;3626;42.656;23.312;2023-05-08T00:03:19;94711.34;;;11.38;100.00
7170;BME280;3626;42.656;23.312;2023-05-08T00:03:25;94712.97;;;11.39;100.00
7170;BME280;3626;42.656;23.312;2023-05-08T00:03:31;94717.31;;;11.38;100.00
7170;BME280;3626;42.656;23.312;2023-05-08T00:03:37;94720.72;;;11.39;100.00
7170;BME280;3626;42.656;23.312;2023-05-08T00:03:43;94717.31;;;11.38;100.00
7170;BME280;3626;42.656;23.312;2023-05-08T00:03:50;94714.91;;;11.37;100.00
7170;BME280;3626;42.656;23.312;2023-05-08T00:03:56;94712.16;;;11.38;100.00
7170;BME280;3626;42.656;23.312;2023-05-08T00:04:03;94713.13;;;11.37;100.00
7170;BME280;3626;42.656;23.312;2023-05-08T00:04:08;94714.72;;;11.38;100.00
7170;BME280;3626;42.656;23.312;2023-05-08T00:04:14;94713.13;;;11.37;100.00
7170;BME280;3626;42.656;23.312;2023-05-08T00:04:22;94717.31;;;11.38;100.00
7170;BME280;3626;42.656;23.312;2023-05-08T00:04:27;94723.31;;;11.39;100.00
7170;BME280;3626;42.656;23.312;2023-05-08T00:04:33;94717.31;;;11.38;100.00
7170;BME280;3626;42.656;23.312;2023-05-08T00:04:40;94717.31;;;11.38;100.00
7170;BME280;3626;42.656;23.312;2023-05-08T00:04:46;94711.34;;;11.38;100.00
7170;BME280;3626;42.656;23.312;2023-05-08T00:04:52;94714.72;;;11.38;100.00
7170;BME280;3626;42.656;23.312;2023-05-08T00:04:58;94712.16;;;11.38;100.00
7170;BME280;3626;42.656;23.312;2023-05-08T00:05:05;94713.13;;;11.37;100.00
7170;BME280;3626;42.656;23.312;2023-05-08T00:05:11;94717.31;;;11.38;100.00
7170;BME280;3626;42.656;23.312;2023-05-08T00:05:17;94710.53;;;11.37;100.00
7170;BME280;3626;42.656;23.312;2023-05-08T00:05:24;94716.50;;;11.38;100.00
7170;BME280;3626;42.656;23.312;2023-05-08T00:05:29;94716.50;;;11.38;100.00
7170;BME280;3626;42.656;23.312;2023-05-08T00:05:35;94709.75;;;11.37;100.00
7170;BME280;3626;42.656;23.312;2023-05-08T00:05:41;94712.31;;;11.37;100.00
7170;BME280;3626;42.656;23.312;2023-05-08T00:05:47;94718.28;;;11.37;100.00
7170;BME280;3626;42.656;23.312;2023-05-08T00:05:53;94711.53;;;11.36;100.00
7170;BME280;3626;42.656;23.312;2023-05-08T00:06:02;94714.09;;;11.36;100.00
7170;BME280;3626;42.656;23.312;2023-05-08T00:06:11;94710.72;;;11.36;100.00
7170;BME280;3626;42.656;23.312;2023-05-08T00:06:17;94710.72;;;11.36;100.00
7170;BME280;3626;42.656;23.312;2023-05-08T00:06:23;94717.66;;;11.35;100.00
7170;BME280;3626;42.656;23.312;2023-05-08T00:06:29;94714.28;;;11.35;100.00
7170;BME280;3626;42.656;23.312;2023-05-08T00:06:35;94716.06;;;11.34;100.00
7170;BME280;3626;42.656;23.312;2023-05-08T00:06:41;94711.69;;;11.35;100.00
7170;BME280;3626;42.656;23.312;2023-05-08T00:06:47;94713.31;;;11.36;100.00
7170;BME280;3626;42.656;23.312;2023-05-08T00:06:53;94716.06;;;11.34;100.00
7170;BME280;3626;42.656;23.312;2023-05-08T00:06:58;94711.69;;;11.35;100.00
7170;BME280;3626;42.656;23.312;2023-05-08T00:07:04;94708.94;;;11.36;100.00
7170;BME280;3626;42.656;23.312;2023-05-08T00:07:10;94708.31;;;11.34;100.00
7170;BME280;3626;42.656;23.312;2023-05-08T00:07:16;94711.69;;;11.35;100.00
7170;BME280;3626;42.656;23.312;2023-05-08T00:07:22;94712.50;;;11.35;100.00
7170;BME280;3626;42.656;23.312;2023-05-08T00:07:29;94715.09;;;11.35;100.00
7170;BME280;3626;42.656;23.312;2023-05-08T00:07:35;94716.88;;;11.35;100.00
7170;BME280;3626;42.656;23.312;2023-05-08T00:07:42;94711.69;;;11.35;100.00
7170;BME280;3626;42.656;23.312;2023-05-08T00:07:48;94717.66;;;11.35;100.00
7170;BME280;3626;42.656;23.312;2023-05-08T00:07:55;94708.31;;;11.34;100.00
7170;BME280;3626;42.656;23.312;2023-05-08T00:08:05;94715.25;;;11.34;100.00
7170;BME280;3626;42.656;23.312;2023-05-08T00:08:11;94718.66;;;11.34;100.00
7170;BME280;3626;42.656;23.312;2023-05-08T00:08:17;94719.59;;;11.33;100.00
7170;BME280;3626;42.656;23.312;2023-05-08T00:08:23;94705.88;;;11.33;100.00
7170;BME280;3626;42.656;23.312;2023-05-08T00:08:29;94716.22;;;11.33;100.00
7170;BME280;3626;42.656;23.312;2023-05-08T00:08:35;94715.41;;;11.32;100.00
7170;BME280;3626;42.656;23.312;2023-05-08T00:08:41;94714.63;;;11.32;100.00
7170;BME280;3626;42.656;23.312;2023-05-08T00:08:47;94714.78;;;11.30;100.00
7170;BME280;3626;42.656;23.312;2023-05-08T00:08:54;94713.00;;;11.31;100.00
7170;BME280;3626;42.656;23.312;2023-05-08T00:09:00;94710.56;;;11.29;100.00
7170;BME280;3626;42.656;23.312;2023-05-08T00:09:06;94718.31;;;11.29;100.00
7170;BME280;3626;42.656;23.312;2023-05-08T00:09:12;94716.53;;;11.30;100.00
7170;BME280;3626;42.656;23.312;2023-05-08T00:09:18;94713.97;;;11.30;100.00
7170;BME280;3626;42.656;23.312;2023-05-08T00:09:24;94718.31;;;11.29;100.00
7170;BME280;3626;42.656;23.312;2023-05-08T00:09:31;94712.34;;;11.29;100.00
7170;BME280;3626;42.656;23.312;2023-05-08T00:09:37;94713.34;;;11.27;100.00
7170;BME280;3626;42.656;23.312;2023-05-08T00:09:43;94710.75;;;11.27;100.00
7170;BME280;3626;42.656;23.312;2023-05-08T00:09:49;94709.94;;;11.27;100.00
7170;BME280;3626;42.656;23.312;2023-05-08T00:09:55;94721.09;;;11.27;100.00
7170;BME280;3626;42.656;23.312;2023-05-08T00:10:01;94715.13;;;11.27;100.00
7170;BME280;3626;42.656;23.312;2023-05-08T00:10:08;94716.09;;;11.26;100.00
7170;BME280;3626;42.656;23.312;2023-05-08T00:10:14;94723.03;;;11.25;100.00
7170;BME280;3626;42.656;23.312;2023-05-08T00:10:23;94718.69;;;11.26;100.00
7170;BME280;3626;42.656;23.312;2023-05-08T00:10:29;94713.53;;;11.26;100.00
7170;BME280;3626;42.656;23.312;2023-05-08T00:10:35;94718.69;;;11.26;100.00
7170;BME280;3626;42.656;23.312;2023-05-08T00:10:41;94716.09;;;11.26;100.00
7170;BME280;3626;42.656;23.312;2023-05-08T00:10:47;94721.28;;;11.26;100.00
7170;BME280;3626;42.656;23.312;2023-05-08T00:10:53;94719.47;;;11.26;100.00
7170;BME280;3626;42.656;23.312;2023-05-08T00:10:59;94714.47;;;11.25;100.00
7170;BME280;3626;42.656;23.312;2023-05-08T00:11:06;94717.84;;;11.25;100.00
7170;BME280;3626;42.656;23.312;2023-05-08T00:11:12;94717.06;;;11.25;100.00
7170;BME280;3626;42.656;23.312;2023-05-08T00:11:18;94714.47;;;11.25;100.00
7170;BME280;3626;42.656;23.312;2023-05-08T00:11:27;94710.94;;;11.26;100.00
7170;BME280;3626;42.656;23.312;2023-05-08T00:11:36;94715.28;;;11.25;100.00
7170;BME280;3626;42.656;23.312;2023-05-08T00:11:41;94716.09;;;11.26;100.00
7170;BME280;3626;42.656;23.312;2023-05-08T00:11:47;94709.31;;;11.25;100.00
7170;BME280;3626;42.656;23.312;2023-05-08T00:11:53;94714.47;;;11.25;100.00
7170;BME280;3626;42.656;23.312;2023-05-08T00:11:59;94713.66;;;11.24;100.00
7170;BME280;3626;42.656;23.312;2023-05-08T00:12:05;94714.47;;;11.25;100.00
7170;BME280;3626;42.656;23.312;2023-05-08T00:12:11;94716.09;;;11.26;100.00
7170;BME280;3626;42.656;23.312;2023-05-08T00:12:17;94715.28;;;11.25;100.00
7170;BME280;3626;42.656;23.312;2023-05-08T00:12:23;94711.88;;;11.25;100.00
7170;BME280;3626;42.656;23.312;2023-05-08T00:12:29;94711.88;;;11.25;100.00
7170;BME280;3626;42.656;23.312;2023-05-08T00:12:35;94714.47;;;11.25;100.00
7170;BME280;3626;42.656;23.312;2023-05-08T00:12:41;94718.03;;;11.24;100.00
7170;BME280;3626;42.656;23.312;2023-05-08T00:12:47;94712.88;;;11.24;100.00
7170;BME280;3626;42.656;23.312;2023-05-08T00:12:53;94710.28;;;11.24;100.00
7170;BME280;3626;42.656;23.312;2023-05-08T00:12:59;94715.44;;;11.24;100.00
7170;BME280;3626;42.656;23.312;2023-05-08T00:13:05;94710.28;;;11.24;100.00
7170;BME280;3626;42.656;23.312;2023-05-08T00:13:11;94719.00;;;11.23;100.00
7170;BME280;3626;42.656;23.312;2023-05-08T00:13:17;94719.00;;;11.23;100.00
7170;BME280;3626;42.656;23.312;2023-05-08T00:13:26;94711.44;;;11.21;100.00
7170;BME280;3626;42.656;23.312;2023-05-08T00:13:32;94711.44;;;11.21;100.00
7170;BME280;3626;42.656;23.312;2023-05-08T00:13:38;94718.34;;;11.21;100.00
7170;BME280;3626;42.656;23.312;2023-05-08T00:13:45;94717.56;;;11.20;100.00
7170;BME280;3626;42.656;23.312;2023-05-08T00:13:51;94718.34;;;11.21;100.00
7170;BME280;3626;42.656;23.312;2023-05-08T00:13:57;94719.34;;;11.20;100.00
7170;BME280;3626;42.656;23.312;2023-05-08T00:14:03;94716.75;;;11.20;100.00
7170;BME280;3626;42.656;23.312;2023-05-08T00:14:09;94711.59;;;11.20;100.00
7170;BME280;3626;42.656;23.312;2023-05-08T00:14:15;94719.34;;;11.20;100.00
7170;BME280;3626;42.656;23.312;2023-05-08T00:14:24;94726.09;;;11.21;100.00
7170;BME280;3626;42.656;23.312;2023-05-08T00:14:30;94714.16;;;11.20;100.00
7170;BME280;3626;42.656;23.312;2023-05-08T00:14:35;94720.94;;;11.21;100.00
7170;BME280;3626;42.656;23.312;2023-05-08T00:14:41;94720.13;;;11.20;100.00
7170;BME280;3626;42.656;23.312;2023-05-08T00:14:47;94717.56;;;11.20;100.00
7170;BME280;3626;42.656;23.312;2023-05-08T00:14:54;94721.78;;;11.21;100.00
7170;BME280;3626;42.656;23.312;2023-05-08T00:15:00;94721.91;;;11.20;100.00
7170;BME280;3626;42.656;23.312;2023-05-08T00:15:07;94714.97;;;11.20;100.00
7170;BME280;3626;42.656;23.312;2023-05-08T00:15:14;94719.34;;;11.20;100.00
7170;BME280;3626;42.656;23.312;2023-05-08T00:15:20;94725.31;;;11.20;100.00
7170;BME280;3626;42.656;23.312;2023-05-08T00:15:26;94723.69;;;11.19;100.00
7170;BME280;3626;42.656;23.312;2023-05-08T00:15:32;94719.34;;;11.20;100.00
7170;BME280;3626;42.656;23.312;2023-05-08T00:15:38;94720.31;;;11.19;100.00
7170;BME280;3626;42.656;23.312;2023-05-08T00:15:44;94721.91;;;11.20;100.00
7170;BME280;3626;42.656;23.312;2023-05-08T00:15:49;94721.91;;;11.20;100.00
7170;BME280;3626;42.656;23.312;2023-05-08T00:15:56;94722.09;;;11.18;100.00
7170;BME280;3626;42.656;23.312;2023-05-08T00:16:02;94724.50;;;11.20;100.00
7170;BME280;3626;42.656;23.312;2023-05-08T00:16:08;94720.31;;;11.19;100.00
7170;BME280;3626;42.656;23.312;2023-05-08T00:16:13;94717.72;;;11.19;100.00
7170;BME280;3626;42.656;23.312;2023-05-08T00:16:19;94724.50;;;11.20;100.00
7170;BME280;3626;42.656;23.312;2023-05-08T00:16:28;94721.91;;;11.20;100.00
7170;BME280;3626;42.656;23.312;2023-05-08T00:16:34;94719.34;;;11.20;100.00
7170;BME280;3626;42.656;23.312;2023-05-08T00:16:40;94721.91;;;11.20;100.00
7170;BME280;3626;42.656;23.312;2023-05-08T00:16:46;94719.34;;;11.20;100.00
7170;BME280;3626;42.656;23.312;2023-05-08T00:16:52;94719.34;;;11.20;100.00
7170;BME280;3626;42.656;23.312;2023-05-08T00:16:58;94723.69;;;11.19;100.00
7170;BME280;3626;42.656;23.312;2023-05-08T00:17:04;94723.69;;;11.19;100.00
7170;BME280;3626;42.656;23.312;2023-05-08T00:17:10;94725.31;;;11.20;100.00
7170;BME280;3626;42.656;23.312;2023-05-08T00:17:17;94725.31;;;11.20;100.00
7170;BME280;3626;42.656;23.312;2023-05-08T00:17:22;94725.31;;;11.20;100.00
7170;BME280;3626;42.656;23.312;2023-05-08T00:17:29;94715.94;;;11.19;100.00
7170;BME280;3626;42.656;23.312;2023-05-08T00:17:34;94721.91;;;11.20;100.00
7170;BME280;3626;42.656;23.312;2023-05-08T00:17:40;94721.91;;;11.20;100.00
7170;BME280;3626;42.656;23.312;2023-05-08T00:17:48;94721.91;;;11.20;100.00
7170;BME280;3626;42.656;23.312;2023-05-08T00:17:54;94724.50;;;11.20;100.00
7170;BME280;3626;42.656;23.312;2023-05-08T00:18:00;94725.31;;;11.20;100.00
7170;BME280;3626;42.656;23.312;2023-05-08T00:18:06;94721.91;;;11.20;100.00
7170;BME280;3626;42.656;23.312;2023-05-08T00:18:11;94719.34;;;11.20;100.00
7170;BME280;3626;42.656;23.312;2023-05-08T00:18:17;94721.91;;;11.20;100.00
7170;BME280;3626;42.656;23.312;2023-05-08T00:18:23;94724.50;;;11.20;100.00
7170;BME280;3626;42.656;23.312;2023-05-08T00:18:29;94721.91;;;11.20;100.00
7170;BME280;3626;42.656;23.312;2023-05-08T00:18:35;94724.50;;;11.20;100.00
7170;BME280;3626;42.656;23.312;2023-05-08T00:18:42;94720.13;;;11.20;100.00
7170;BME280;3626;42.656;23.312;2023-05-08T00:18:48;94726.94;;;11.21;100.00
7170;BME280;3626;42.656;23.312;2023-05-08T00:18:55;94718.22;;;11.22;100.00
7170;BME280;3626;42.656;23.312;2023-05-08T00:19:01;94721.78;;;11.21;100.00
7170;BME280;3626;42.656;23.312;2023-05-08T00:19:07;94720.78;;;11.22;100.00
7170;BME280;3626;42.656;23.312;2023-05-08T00:19:13;94722.56;;;11.22;100.00
7170;BME280;3626;42.656;23.312;2023-05-08T00:19:19;94724.34;;;11.21;100.00
7170;BME280;3626;42.656;23.312;2023-05-08T00:19:26;94718.22;;;11.22;100.00
7170;BME280;3626;42.656;23.312;2023-05-08T00:19:32;94724.19;;;11.23;100.00
7170;BME280;3626;42.656;23.312;2023-05-08T00:19:38;94718.22;;;11.22;100.00
7170;BME280;3626;42.656;23.312;2023-05-08T00:19:44;94720.00;;;11.22;100.00
7170;BME280;3626;42.656;23.312;2023-05-08T00:19:50;94724.19;;;11.23;100.00
7170;BME280;3626;42.656;23.312;2023-05-08T00:19:55;94719.19;;;11.21;100.00
7170;BME280;3626;42.656;23.312;2023-05-08T00:20:02;94720.00;;;11.22;100.00
7170;BME280;3626;42.656;23.312;2023-05-08T00:20:09;94726.75;;;11.23;100.00
7170;BME280;3626;42.656;23.312;2023-05-08T00:20:15;94723.38;;;11.22;100.00
7170;BME280;3626;42.656;23.312;2023-05-08T00:20:21;94726.75;;;11.23;100.00
7170;BME280;3626;42.656;23.312;2023-05-08T00:20:27;94729.34;;;11.23;100.00
7170;BME280;3626;42.656;23.312;2023-05-08T00:20:33;94728.53;;;11.22;100.00
7170;BME280;3626;42.656;23.312;2023-05-08T00:20:39;94724.97;;;11.23;100.00
7170;BME280;3626;42.656;23.312;2023-05-08T00:20:46;94721.59;;;11.23;100.00
7170;BME280;3626;42.656;23.312;2023-05-08T00:20:52;94730.16;;;11.23;100.00
7170;BME280;3626;42.656;23.312;2023-05-08T00:21:00;94724.97;;;11.23;100.00
7170;BME280;3626;42.656;23.312;2023-05-08T00:21:06;94717.22;;;11.23;100.00
7170;BME280;3626;42.656;23.312;2023-05-08T00:21:12;94724.19;;;11.23;100.00
7170;BME280;3626;42.656;23.312;2023-05-08T00:21:18;94730.16;;;11.23;100.00
7170;BME280;3626;42.656;23.312;2023-05-08T00:21:24;94727.56;;;11.23;100.00
7170;BME280;3626;42.656;23.312;2023-05-08T00:21:30;94724.97;;;11.23;100.00
7170;BME280;3626;42.656;23.312;2023-05-08T00:21:36;94723.38;;;11.22;100.00
7170;BME280;3626;42.656;23.312;2023-05-08T00:21:42;94720.78;;;11.22;100.00
7170;BME280;3626;42.656;23.312;2023-05-08T00:21:48;94726.75;;;11.23;100.00
7170;BME280;3626;42.656;23.312;2023-05-08T00:21:54;94725.97;;;11.22;100.00
7170;BME280;3626;42.656;23.312;2023-05-08T00:22:00;94726.75;;;11.23;100.00
7170;BME280;3626;42.656;23.312;2023-05-08T00:22:06;94727.75;;;11.22;100.00
7170;BME280;3626;42.656;23.312;2023-05-08T00:22:11;94719.19;;;11.21;100.00
7170;BME280;3626;42.656;23.312;2023-05-08T00:22:18;94725.16;;;11.22;100.00
7170;BME280;3626;42.656;23.312;2023-05-08T00:22:24;94721.91;;;11.20;100.00
7170;BME280;3626;42.656;23.312;2023-05-08T00:22:30;94723.69;;;11.19;100.00
7170;BME280;3626;42.656;23.312;2023-05-08T00:22:36;94722.91;;;11.19;100.00
7170;BME280;3626;42.656;23.312;2023-05-08T00:22:43;94722.09;;;11.18;100.00
7170;BME280;3626;42.656;23.312;2023-05-08T00:22:49;94734.84;;;11.20;100.00
7170;BME280;3626;42.656;23.312;2023-05-08T00:22:55;94722.91;;;11.19;100.00
7170;BME280;3626;42.656;23.312;2023-05-08T00:23:02;94722.09;;;11.18;100.00
7170;BME280;3626;42.656;23.312;2023-05-08T00:23:08;94723.88;;;11.18;100.00
7170;BME280;3626;42.656;23.312;2023-05-08T00:23:14;94731.44;;;11.19;100.00
7170;BME280;3626;42.656;23.312;2023-05-08T00:23:20;94723.88;;;11.18;100.00
7170;BME280;3626;42.656;23.312;2023-05-08T00:23:26;94726.47;;;11.18;100.00
7170;BME280;3626;42.656;23.312;2023-05-08T00:23:32;94725.66;;;11.17;100.00
7170;BME280;3626;42.656;23.312;2023-05-08T00:23:38;94723.06;;;11.17;100.00
7170;BME280;3626;42.656;23.312;2023-05-08T00:23:44;94720.50;;;11.17;100.00
7170;BME280;3626;42.656;23.312;2023-05-08T00:23:50;94722.25;;;11.17;100.00
7170;BME280;3626;42.656;23.312;2023-05-08T00:23:56;94723.22;;;11.16;100.00
7170;BME280;3626;42.656;23.312;2023-05-08T00:24:02;94730.81;;;11.17;100.00
7170;BME280;3626;42.656;23.312;2023-05-08T00:24:09;94721.44;;;11.16;100.00
7170;BME280;3626;42.656;23.312;2023-05-08T00:24:15;94728.38;;;11.16;100.00
7170;BME280;3626;42.656;23.312;2023-05-08T00:24:21;94719.66;;;11.17;100.00
7170;BME280;3626;42.656;23.312;2023-05-08T00:24:27;94720.50;;;11.17;100.00
7170;BME280;3626;42.656;23.312;2023-05-08T00:24:33;94724.03;;;11.16;100.00
7170;BME280;3626;42.656;23.312;2023-05-08T00:24:39;94727.41;;;11.17;100.00
7170;BME280;3626;42.656;23.312;2023-05-08T00:24:45;94724.03;;;11.16;100.00
7170;BME280;3626;42.656;23.312;2023-05-08T00:24:51;94727.41;;;11.17;100.00
7170;BME280;3626;42.656;23.312;2023-05-08T00:24:57;94725.66;;;11.17;100.00
7170;BME280;3626;42.656;23.312;2023-05-08T00:25:03;94731.63;;;11.18;100.00
7170;BME280;3626;42.656;23.312;2023-05-08T00:25:10;94719.66;;;11.17;100.00
7170;BME280;3626;42.656;23.312;2023-05-08T00:25:16;94723.88;;;11.18;100.00
7170;BME280;3626;42.656;23.312;2023-05-08T00:25:22;94729.03;;;11.18;100.00
7170;BME280;3626;42.656;23.312;2023-05-08T00:25:28;94723.88;;;11.18;100.00
7170;BME280;3626;42.656;23.312;2023-05-08T00:25:35;94727.25;;;11.18;100.00
7170;BME280;3626;42.656;23.312;2023-05-08T00:25:42;94728.06;;;11.19;100.00
7170;BME280;3626;42.656;23.312;2023-05-08T00:25:48;94728.25;;;11.17;100.00
7170;BME280;3626;42.656;23.312;2023-05-08T00:25:54;94722.91;;;11.19;100.00
7170;BME280;3626;42.656;23.312;2023-05-08T00:26:00;94727.09;;;11.20;100.00
7170;BME280;3626;42.656;23.312;2023-05-08T00:26:09;94728.88;;;11.19;100.00
7170;BME280;3626;42.656;23.312;2023-05-08T00:26:15;94732.44;;;11.18;100.00
7170;BME280;3626;42.656;23.312;2023-05-08T00:26:21;94731.44;;;11.19;100.00
7170;BME280;3626;42.656;23.312;2023-05-08T00:26:27;94732.25;;;11.20;100.00
7170;BME280;3626;42.656;23.312;2023-05-08T00:26:33;94729.66;;;11.20;100.00
7170;BME280;3626;42.656;23.312;2023-05-08T00:26:39;94727.88;;;11.20;100.00
7170;BME280;3626;42.656;23.312;2023-05-08T00:26:48;94732.25;;;11.20;100.00
7170;BME280;3626;42.656;23.312;2023-05-08T00:26:54;94728.69;;;11.21;100.00
7170;BME280;3626;42.656;23.312;2023-05-08T00:27:00;94734.03;;;11.19;100.00
7170;BME280;3626;42.656;23.312;2023-05-08T00:27:06;94729.66;;;11.20;100.00
7170;BME280;3626;42.656;23.312;2023-05-08T00:27:12;94728.88;;;11.19;100.00
7170;BME280;3626;42.656;23.312;2023-05-08T00:27:19;94726.28;;;11.19;100.00
7170;BME280;3626;42.656;23.312;2023-05-08T00:27:25;94728.06;;;11.19;100.00
7170;BME280;3626;42.656;23.312;2023-05-08T00:27:31;94734.84;;;11.20;100.00
7170;BME280;3626;42.656;23.312;2023-05-08T00:27:37;94728.88;;;11.19;100.00
7170;BME280;3626;42.656;23.312;2023-05-08T00:27:43;94731.44;;;11.19;100.00
7170;BME280;3626;42.656;23.312;2023-05-08T00:27:49;94729.66;;;11.20;100.00
7170;BME280;3626;42.656;23.312;2023-05-08T00:27:55;94722.09;;;11.18;100.00
7170;BME280;3626;42.656;23.312;2023-05-08T00:28:01;94723.69;;;11.19;100.00
7170;BME280;3626;42.656;23.312;2023-05-08T00:28:07;94728.06;;;11.19;100.00
7170;BME280;3626;42.656;23.312;2023-05-08T00:28:13;94730.66;;;11.19;100.00
7170;BME280;3626;42.656;23.312;2023-05-08T00:28:19;94729.84;;;11.18;100.00
7170;BME280;3626;42.656;23.312;2023-05-08T00:28:25;94732.44;;;11.18;100.00
7170;BME280;3626;42.656;23.312;2023-05-08T00:28:31;94731.63;;;11.18;100.00
7170;BME280;3626;42.656;23.312;2023-05-08T00:28:37;94726.47;;;11.18;100.00
7170;BME280;3626;42.656;23.312;2023-05-08T00:28:43;94727.25;;;11.18;100.00
7170;BME280;3626;42.656;23.312;2023-05-08T00:28:49;94730.00;;;11.17;100.00
7170;BME280;3626;42.656;23.312;2023-05-08T00:28:55;94720.50;;;11.17;100.00
7170;BME280;3626;42.656;23.312;2023-05-08T00:29:02;94730.00;;;11.17;100.00
7170;BME280;3626;42.656;23.312;2023-05-08T00:29:09;94727.41;;;11.17;100.00
7170;BME280;3626;42.656;23.312;2023-05-08T00:29:15;94724.81;;;11.17;100.00
7170;BME280;3626;42.656;23.312;2023-05-08T00:29:21;94732.56;;;11.17;100.00
7170;BME280;3626;42.656;23.312;2023-05-08T00:29:27;94732.56;;;11.17;100.00
7170;BME280;3626;42.656;23.312;2023-05-08T00:29:33;94734.34;;;11.16;100.00
7170;BME280;3626;42.656;23.312;2023-05-08T00:29:39;94728.38;;;11.16;100.00
7170;BME280;3626;42.656;23.312;2023-05-08T00:29:47;94733.56;;;11.16;100.00
7170;BME280;3626;42.656;23.312;2023-05-08T00:29:53;94734.34;;;11.16;100.00
7170;BME280;3626;42.656;23.312;2023-05-08T00:29:59;94728.38;;;11.16;100.00
7170;BME280;3626;42.656;23.312;2023-05-08T00:30:06;94729.38;;;11.15;100.00
7170;BME280;3626;42.656;23.312;2023-05-08T00:30:12;94726.00;;;11.14;100.00
7170;BME280;3626;42.656;23.312;2023-05-08T00:30:19;94731.16;;;11.14;100.00
7170;BME280;3626;42.656;23.312;2023-05-08T00:30:25;94726.00;;;11.14;100.00
7170;BME280;3626;42.656;23.312;2023-05-08T00:30:31;94730.19;;;11.15;100.00
7170;BME280;3626;42.656;23.312;2023-05-08T00:30:38;94733.72;;;11.14;100.00
7170;BME280;3626;42.656;23.312;2023-05-08T00:30:44;94729.38;;;11.15;100.00
7170;BME280;3626;42.656;23.312;2023-05-08T00:30:50;94731.97;;;11.15;100.00
7170;BME280;3626;42.656;23.312;2023-05-08T00:30:58;94728.56;;;11.14;100.00
7170;BME280;3626;42.656;23.312;2023-05-08T00:31:05;94731.16;;;11.14;100.00
7170;BME280;3626;42.656;23.312;2023-05-08T00:31:11;94730.34;;;11.14;100.00
7170;BME280;3626;42.656;23.312;2023-05-08T00:31:18;94731.97;;;11.15;100.00
7170;BME280;3626;42.656;23.312;2023-05-08T00:31:24;94728.56;;;11.14;100.00
7170;BME280;3626;42.656;23.312;2023-05-08T00:31:30;94736.31;;;11.14;100.00
7170;BME280;3626;42.656;23.312;2023-05-08T00:31:37;94731.97;;;11.15;100.00
7170;BME280;3626;42.656;23.312;2023-05-08T00:31:42;94730.34;;;11.14;100.00
7170;BME280;3626;42.656;23.312;2023-05-08T00:31:48;94724.38;;;11.13;100.00
7170;BME280;3626;42.656;23.312;2023-05-08T00:31:54;94732.94;;;11.14;100.00
7170;BME280;3626;42.656;23.312;2023-05-08T00:32:01;94732.13;;;11.13;100.00
7170;BME280;3626;42.656;23.312;2023-05-08T00:32:09;94725.19;;;11.14;100.00
7170;BME280;3626;42.656;23.312;2023-05-08T00:32:15;94729.56;;;11.13;100.00
7170;BME280;3626;42.656;23.312;2023-05-08T00:32:21;94733.72;;;11.14;100.00
7170;BME280;3626;42.656;23.312;2023-05-08T00:32:27;94726.00;;;11.14;100.00
7170;BME280;3626;42.656;23.312;2023-05-08T00:32:34;94728.56;;;11.14;100.00
7170;BME280;3626;42.656;23.312;2023-05-08T00:32:39;94726.97;;;11.13;100.00
7170;BME280;3626;42.656;23.312;2023-05-08T00:32:45;94735.50;;;11.14;100.00
7170;BME280;3626;42.656;23.312;2023-05-08T00:32:52;94730.34;;;11.14;100.00
7170;BME280;3626;42.656;23.312;2023-05-08T00:32:57;94725.19;;;11.14;100.00
7170;BME280;3626;42.656;23.312;2023-05-08T00:33:03;94727.75;;;11.14;100.00
7170;BME280;3626;42.656;23.312;2023-05-08T00:33:09;94728.72;;;11.13;100.00
7170;BME280;3626;42.656;23.312;2023-05-08T00:33:16;94728.72;;;11.13;100.00